Time;durP1;ratioP1;P1;durP2;ratioP2;P2;SDS_P1;SDS_P2;PMS_P1;PMS_P2;Temp;Humidity;BMP_temperature;BMP_pressure;BME280_temperature;BME280_humidity;BME280_pressure;Samples;Min_cycle;Max_cycle;Signal;HPM_P1;HPM_P2
2022/04/22 00:01:01;;;;;;;6.47;5.73;;;13.90;56.50;;;-142.21;91.93;112049.66;5071924;28;20807;-75
2022/04/22 00:03:28;;;;;;;8.33;6.10;;;13.90;55.80;;;-142.21;92.03;112049.66;5071711;28;20440;-74
2022/04/22 00:05:55;;;;;;;7.57;6.07;;;13.90;56.50;;;-142.21;91.69;112049.66;5070745;28;20864;-76
2022/04/22 00:08:24;;;;;;;7.13;6.10;;;13.80;56.30;;;-142.21;91.90;112049.66;5072185;28;20475;-76
2022/04/22 00:13:38;;;;;;;8.00;6.43;;;13.80;56.50;;;-142.21;92.18;112049.66;5072181;28;20435;-75
2022/04/22 00:16:06;;;;;;;7.20;6.50;;;13.80;56.70;;;-142.21;92.89;112049.66;5071529;28;20443;-75
2022/04/22 00:18:33;;;;;;;7.60;6.23;;;13.70;56.90;;;-142.21;94.53;112049.66;5071923;28;20498;-76
2022/04/22 00:21:01;;;;;;;7.77;6.90;;;13.80;57.50;;;-142.21;93.37;112049.66;5071254;28;20474;-75
2022/04/22 00:23:28;;;;;;;7.63;6.23;;;13.80;56.90;;;-142.21;92.88;112049.66;5071513;28;20479;-76
2022/04/22 00:25:59;;;;;;;9.33;6.70;;;13.80;56.60;;;-142.21;94.30;112049.66;5071467;28;20448;-76
2022/04/22 00:28:26;;;;;;;7.63;6.40;;;13.90;57.00;;;-142.21;93.76;112049.66;5071563;28;20474;-76
2022/04/22 00:30:53;;;;;;;7.47;6.67;;;13.90;56.60;;;-142.21;93.78;112049.66;5071512;28;20555;-76
2022/04/22 00:33:20;;;;;;;8.23;6.93;;;13.90;56.80;;;-142.21;93.79;112049.66;5071353;28;20835;-76
2022/04/22 00:35:48;;;;;;;6.77;6.07;;;13.90;56.90;;;-142.21;94.29;112049.66;5071856;28;20523;-75
2022/04/22 00:38:16;;;;;;;10.60;7.77;;;13.80;57.00;;;-142.21;94.59;112049.66;5071518;28;20855;-76
2022/04/22 00:40:43;;;;;;;7.73;6.70;;;13.80;57.30;;;-142.21;94.51;112049.66;5071726;28;20443;-75
2022/04/22 00:43:23;;;;;;;8.20;7.20;;;13.80;57.10;;;-142.21;94.84;112049.66;5075823;28;20454;-75
2022/04/22 00:45:53;;;;;;;9.70;7.40;;;13.70;57.60;;;-142.21;94.99;112049.66;5075021;28;20594;-75
2022/04/22 00:48:23;;;;;;;8.73;7.30;;;13.70;57.50;;;-142.21;94.97;112049.66;5072665;28;20439;-76
2022/04/22 00:50:51;;;;;;;8.93;7.10;;;13.70;57.40;;;-142.21;95.60;112049.66;5075360;28;20505;-76
2022/04/22 00:53:19;;;;;;;9.67;8.07;;;13.80;57.50;;;-142.21;94.77;112049.66;5075518;28;20807;-76
2022/04/22 00:55:47;;;;;;;9.27;7.30;;;13.90;57.50;;;-142.21;95.04;112049.66;5075039;28;20817;-75
2022/04/22 00:58:14;;;;;;;11.30;7.50;;;13.80;57.20;;;-142.21;95.50;112049.66;5075557;28;20516;-76
2022/04/22 01:00:43;;;;;;;8.70;6.97;;;13.80;57.40;;;-142.21;95.13;112049.66;5074586;28;20455;-76
2022/04/22 01:03:11;;;;;;;9.43;7.27;;;13.80;57.60;;;-142.21;95.34;112049.66;5075278;28;20530;-76
2022/04/22 01:11:09;;;;;;;11.33;8.23;;;13.90;57.20;;;-142.21;95.20;112049.66;5074788;28;20466;-76
2022/04/22 01:13:37;;;;;;;9.93;8.07;;;13.80;57.30;;;-142.21;95.51;112049.66;5074582;28;20443;-75
2022/04/22 01:16:06;;;;;;;8.53;7.57;;;13.80;57.20;;;-142.21;95.75;112049.66;5074752;28;20449;-76
2022/04/22 01:18:33;;;;;;;10.70;7.43;;;13.90;57.20;;;-142.21;94.69;112049.66;5075040;28;20443;-75
2022/04/22 01:21:03;;;;;;;11.17;8.33;;;13.90;57.00;;;-142.21;95.41;112049.66;5074260;28;20975;-76
2022/04/22 01:23:31;;;;;;;9.57;7.90;;;13.90;57.10;;;-142.21;97.22;112049.66;5074926;28;20454;-76
2022/04/22 01:25:59;;;;;;;13.97;8.47;;;13.90;57.20;;;-142.21;96.75;112049.66;5074498;28;20451;-76
2022/04/22 01:28:27;;;;;;;11.23;7.83;;;13.80;57.60;;;-142.21;96.37;112049.66;5074632;28;20479;-76
2022/04/22 01:30:57;;;;;;;8.93;7.83;;;13.70;57.90;;;-142.21;96.62;112049.66;5074297;28;20556;-75
2022/04/22 01:33:24;;;;;;;10.27;8.23;;;13.60;58.10;;;-142.21;97.33;112049.66;5074579;28;20444;-75
2022/04/22 01:35:51;;;;;;;10.90;8.37;;;13.70;58.10;;;-142.21;97.27;112049.66;5074096;28;20483;-76
2022/04/22 01:38:20;;;;;;;9.57;7.60;;;13.70;58.00;;;-142.21;96.53;112049.66;5074589;28;20479;-76
2022/04/22 01:40:47;;;;;;;10.63;7.97;;;13.80;57.80;;;-142.21;97.00;112049.66;5074922;28;20790;-74
2022/04/22 01:43:14;;;;;;;12.90;8.70;;;13.70;58.40;;;-142.21;97.53;112049.66;5073902;28;20538;-77
2022/04/22 01:45:41;;;;;;;10.37;8.13;;;13.60;57.90;;;-142.21;97.00;112049.66;5074525;28;20451;-77
2022/04/22 01:48:09;;;;;;;11.07;8.97;;;13.70;57.90;;;-142.21;97.84;112049.66;5074240;28;20534;-75
2022/04/22 01:50:36;;;;;;;10.77;8.33;;;13.60;58.10;;;-142.21;97.69;112049.66;5074209;28;20507;-76
2022/04/22 01:53:06;;;;;;;8.70;7.70;;;13.70;58.00;;;-142.21;96.95;112049.66;5073805;28;20449;-76
2022/04/22 01:55:35;;;;;;;13.27;9.17;;;13.60;58.00;;;-142.21;97.57;112049.66;5074501;28;20451;-76
2022/04/22 01:58:03;;;;;;;11.80;8.57;;;13.60;58.10;;;-142.21;97.68;112049.66;5073424;28;20453;-75
2022/04/22 02:00:31;;;;;;;11.03;8.60;;;13.70;58.30;;;-142.21;97.39;112049.66;5026099;28;21140;-76
2022/04/22 02:02:58;;;;;;;9.90;8.33;;;13.60;58.30;;;-142.21;97.04;112049.66;5074443;28;20444;-76
2022/04/22 02:05:25;;;;;;;12.23;9.00;;;13.60;58.20;;;-142.21;97.38;112049.66;5073486;28;20444;-76
2022/04/22 02:07:52;;;;;;;11.50;9.47;;;13.60;58.20;;;-142.21;97.58;112049.66;5074506;28;20851;-76
2022/04/22 02:10:20;;;;;;;12.00;8.73;;;13.70;58.00;;;-142.21;96.83;112049.66;5073031;28;20483;-75
2022/04/22 02:12:49;;;;;;;10.97;8.93;;;13.70;57.60;;;-142.21;97.79;112049.66;5073222;28;20530;-75
2022/04/22 02:15:18;;;;;;;11.53;9.20;;;13.80;57.60;;;-142.21;97.43;112049.66;5035205;28;20852;-75
2022/04/22 02:17:45;;;;;;;11.30;8.93;;;13.70;57.50;;;-142.21;98.13;112049.66;5072652;28;20452;-75
2022/04/22 02:20:13;;;;;;;15.37;9.50;;;13.70;58.00;;;-142.21;97.72;112049.66;5073614;28;20475;-76
2022/04/22 02:22:40;;;;;;;12.80;9.57;;;13.70;58.20;;;-142.21;97.91;112049.66;5073159;28;20965;-76
2022/04/22 02:25:08;;;;;;;12.37;8.90;;;13.60;58.20;;;-142.21;97.43;112049.66;5073414;28;20454;-76
2022/04/22 02:30:23;;;;;;;11.27;9.43;;;13.70;58.10;;;-142.21;97.68;112049.66;5073503;28;20525;-75
2022/04/22 02:32:51;;;;;;;12.33;10.13;;;13.60;58.00;;;-142.21;98.02;112049.66;5072944;28;20923;-75
2022/04/22 02:35:19;;;;;;;12.73;9.93;;;13.60;58.60;;;-142.21;98.09;112049.66;5073249;28;20454;-75
2022/04/22 02:37:50;;;;;;;12.70;10.53;;;13.60;58.40;;;-142.21;97.34;112049.66;5072102;28;20447;-76
2022/04/22 02:45:45;;;;;;;11.53;9.33;;;13.60;58.10;;;-142.21;98.16;112049.66;5086390;28;20446;-77
2022/04/22 02:48:12;;;;;;;12.97;10.17;;;13.60;58.20;;;-142.21;99.03;112049.66;5082020;28;20504;-77
2022/04/22 02:50:40;;;;;;;13.40;9.53;;;13.50;58.40;;;-142.21;98.67;112049.66;5083584;28;20533;-76
2022/04/22 02:53:07;;;;;;;13.67;10.33;;;13.50;58.40;;;-142.21;98.59;112049.66;5076884;28;20534;-76
2022/04/22 02:55:38;;;;;;;14.17;11.03;;;13.50;59.20;;;-142.21;99.56;112049.66;5074236;28;20482;-76
2022/04/22 02:58:07;;;;;;;12.00;8.97;;;13.50;59.10;;;-142.21;99.07;112049.66;5072855;28;20435;-77
2022/04/22 03:00:34;;;;;;;13.00;10.13;;;13.50;58.60;;;-142.21;99.32;112049.66;5072534;28;20450;-76
2022/04/22 03:03:05;;;;;;;12.73;10.27;;;13.50;58.60;;;-142.21;98.16;112049.66;5072225;28;20443;-77
2022/04/22 03:05:32;;;;;;;12.57;9.90;;;13.60;58.40;;;-142.21;98.88;112049.66;5055568;28;20443;-76
2022/04/22 03:08:00;;;;;;;16.17;10.73;;;13.50;58.40;;;-142.21;98.57;112049.66;5074057;28;20448;-76
2022/04/22 03:10:30;;;;;;;13.27;10.67;;;13.60;58.60;;;-142.21;98.97;112049.66;5071818;28;20565;-76
2022/04/22 03:12:57;;;;;;;13.27;10.60;;;13.60;58.40;;;-142.21;99.26;112049.66;5072702;28;20766;-76
2022/04/22 03:15:26;;;;;;;14.60;11.47;;;13.50;58.50;;;-142.21;99.08;112049.66;5072623;28;20465;-77
2022/04/22 03:17:53;;;;;;;14.47;10.90;;;13.50;58.90;;;-142.21;98.99;112049.66;5072852;28;20530;-75
2022/04/22 03:20:22;;;;;;;15.63;10.80;;;13.30;58.70;;;-142.21;98.88;112049.66;5072142;28;20444;-76
2022/04/22 03:22:49;;;;;;;14.40;11.63;;;13.40;59.20;;;-142.21;99.70;112049.66;5072338;28;20509;-72
2022/04/22 03:25:19;;;;;;;15.50;11.63;;;13.40;59.30;;;-142.21;99.05;112049.66;5061189;28;20530;-75
2022/04/22 03:27:46;;;;;;;13.73;10.60;;;13.50;59.60;;;-142.21;99.69;112049.66;5072344;28;20869;-76
2022/04/22 03:30:14;;;;;;;16.13;10.93;;;13.50;59.30;;;-142.21;99.05;112049.66;5071196;28;20487;-76
2022/04/22 03:32:41;;;;;;;14.80;10.50;;;13.40;59.00;;;-142.21;98.70;112049.66;5071722;28;20530;-76
2022/04/22 03:35:09;;;;;;;12.93;9.97;;;13.30;58.70;;;-142.21;98.84;112049.66;5071192;28;20464;-76
2022/04/22 03:37:38;;;;;;;13.73;10.63;;;13.30;58.60;;;-142.21;99.41;112049.66;5072283;28;20749;-76
2022/04/22 03:40:08;;;;;;;13.17;10.23;;;13.30;59.20;;;-142.21;99.08;112049.66;5071887;28;20939;-77
2022/04/22 03:42:36;;;;;;;13.93;10.87;;;13.20;58.80;;;-142.21;99.64;112049.66;5072315;28;20420;-76
2022/04/22 03:45:05;;;;;;;13.27;9.80;;;13.20;58.90;;;-142.21;99.56;112049.66;5071983;28;20451;-76
2022/04/22 03:47:32;;;;;;;14.27;9.70;;;13.10;59.00;;;-142.21;99.50;112049.66;5070859;28;20824;-76
2022/04/22 03:49:59;;;;;;;15.00;10.50;;;13.00;58.90;;;-142.21;99.90;112049.66;5072393;28;20539;-76
2022/04/22 03:52:27;;;;;;;14.17;10.87;;;12.90;59.30;;;-142.21;100.00;112049.66;5072443;28;20447;-76
2022/04/22 03:54:55;;;;;;;15.63;10.53;;;12.90;59.60;;;-142.21;100.00;112049.66;5070027;28;20486;-76
2022/04/22 04:00:08;;;;;;;14.90;10.73;;;12.70;59.50;;;-142.21;100.00;112049.66;5072446;28;20513;-75
2022/04/22 04:02:36;;;;;;;15.17;11.03;;;12.60;60.50;;;-142.21;100.00;112049.66;5072509;28;20498;-76
2022/04/22 04:05:03;;;;;;;14.30;10.70;;;12.40;60.40;;;-142.21;100.00;112049.66;5071689;28;20950;-77
2022/04/22 04:07:31;;;;;;;16.10;11.77;;;12.30;60.50;;;-142.21;100.00;112049.66;5071641;28;20530;-76
2022/04/22 04:18:13;;;;;;;16.47;11.70;;;12.20;61.10;;;-142.21;100.00;112049.66;5076069;28;20489;-75
2022/04/22 04:23:25;;;;;;;18.93;12.53;;;12.20;62.70;;;-142.21;100.00;112049.66;5075956;28;20434;-76
2022/04/22 04:25:54;;;;;;;17.77;11.93;;;12.20;63.00;;;-142.21;100.00;112049.66;5075892;28;20526;-77
2022/04/22 04:28:23;;;;;;;17.10;12.23;;;12.20;62.60;;;-142.21;100.00;112049.66;5075545;28;21339;-75
2022/04/22 04:30:50;;;;;;;20.60;12.97;;;12.20;62.40;;;-142.21;100.00;112049.66;5075931;28;20503;-75
2022/04/22 04:33:17;;;;;;;24.40;13.77;;;12.10;63.50;;;-142.21;100.00;112049.66;5075269;28;20478;-75
2022/04/22 04:35:46;;;;;;;18.40;13.23;;;12.10;63.40;;;-142.21;100.00;112049.66;5076178;28;20443;-75
2022/04/22 04:38:14;;;;;;;24.83;13.33;;;12.10;63.40;;;-142.21;100.00;112049.66;5074856;28;20466;-75
2022/04/22 04:40:41;;;;;;;16.20;12.30;;;12.10;63.10;;;-142.21;100.00;112049.66;5075534;28;20438;-74
2022/04/22 04:43:10;;;;;;;17.63;12.33;;;12.00;62.90;;;-142.21;100.00;112049.66;5076082;28;20443;-76
2022/04/22 04:45:38;;;;;;;18.33;14.23;;;12.00;63.60;;;-142.21;100.00;112049.66;5074979;28;20800;-76
2022/04/22 04:48:07;;;;;;;16.70;13.37;;;12.00;63.50;;;-142.21;100.00;112049.66;5067278;28;20502;-75
2022/04/22 04:50:34;;;;;;;18.73;12.77;;;12.00;63.40;;;-142.21;100.00;112049.66;5073601;28;20482;-75
2022/04/22 04:53:04;;;;;;;17.20;12.07;;;12.00;63.50;;;-142.21;100.00;112049.66;5075123;28;20538;-77
2022/04/22 04:55:31;;;;;;;17.73;12.87;;;12.10;62.90;;;-142.21;100.00;112049.66;5074763;28;20935;-77
2022/04/22 04:57:59;;;;;;;18.17;13.50;;;12.10;63.50;;;-142.21;100.00;112049.66;5075096;28;20447;-76
2022/04/22 05:00:28;;;;;;;18.93;13.17;;;12.10;63.60;;;-142.21;100.00;112049.66;5075018;28;20443;-76
2022/04/22 05:02:56;;;;;;;18.23;12.37;;;12.10;63.30;;;-142.21;100.00;112049.66;5075543;28;20453;-76
2022/04/22 05:05:23;;;;;;;19.50;12.93;;;12.00;63.40;;;-142.21;100.00;112049.66;5074896;28;20454;-75
2022/04/22 05:07:55;;;;;;;18.47;13.20;;;12.00;64.50;;;-142.21;100.00;112049.66;5074868;28;20447;-75
2022/04/22 05:10:22;;;;;;;19.17;12.73;;;12.00;64.10;;;-142.21;100.00;112049.66;5075457;28;20462;-76
2022/04/22 05:12:50;;;;;;;19.17;13.97;;;12.00;64.00;;;-142.21;100.00;112049.66;5073247;28;20445;-76
2022/04/22 05:15:19;;;;;;;18.60;13.10;;;12.20;63.90;;;-142.21;100.00;112049.66;5075500;28;20516;-77
2022/04/22 05:17:48;;;;;;;19.27;13.50;;;12.40;63.30;;;-142.21;100.00;112049.66;5074735;28;20448;-76
2022/04/22 05:20:17;;;;;;;19.57;13.50;;;12.50;62.70;;;-142.21;100.00;112049.66;5075225;28;20474;-76
2022/04/22 05:22:45;;;;;;;18.33;13.10;;;12.60;62.40;;;-142.21;100.00;112049.66;5074084;28;20483;-76
2022/04/22 05:25:15;;;;;;;19.33;13.47;;;12.60;62.80;;;-142.21;100.00;112049.66;5074276;28;20471;-77
2022/04/22 05:27:43;;;;;;;19.50;14.10;;;12.60;63.10;;;-142.21;100.00;112049.66;5072950;28;20551;-74
2022/04/22 05:33:00;;;;;;;20.53;13.97;;;12.70;63.50;;;-142.21;100.00;112049.66;5067261;28;20944;-74
2022/04/22 05:35:28;;;;;;;19.00;14.07;;;12.70;63.40;;;-142.21;100.00;112049.66;5074040;28;20451;-76
2022/04/22 05:37:57;;;;;;;17.77;13.37;;;12.70;63.30;;;-142.21;100.00;112049.66;5074500;28;20450;-76
2022/04/22 05:40:27;;;;;;;16.83;12.67;;;12.90;62.80;;;-142.21;100.00;112049.66;5074685;28;20861;-75
2022/04/22 05:42:56;;;;;;;18.40;13.07;;;12.90;62.80;;;-142.21;100.00;112049.66;5074451;28;20530;-75
2022/04/22 05:45:26;;;;;;;17.60;13.73;;;13.10;62.50;;;-142.21;100.00;112049.66;5073771;28;20443;-78
2022/04/22 05:47:53;;;;;;;17.70;12.43;;;13.20;62.60;;;-142.21;100.00;112049.66;5072908;28;20494;-75
2022/04/22 05:50:23;;;;;;;17.83;12.93;;;13.40;61.80;;;-142.21;100.00;112049.66;5072776;28;20537;-78
2022/04/22 05:52:52;;;;;;;17.47;12.60;;;13.50;61.70;;;-142.21;100.00;112049.66;5074786;28;20838;-76
2022/04/22 05:55:24;;;;;;;16.80;12.80;;;13.70;61.80;;;-142.21;100.00;112049.66;5073802;28;20483;-77
2022/04/22 05:57:53;;;;;;;19.93;13.50;;;13.70;61.60;;;-142.21;100.00;112049.66;5074551;28;20900;-76
2022/04/22 06:00:23;;;;;;;17.70;13.00;;;13.70;61.60;;;-142.21;100.00;112049.66;5073836;28;20449;-77
2022/04/22 06:02:52;;;;;;;17.83;13.43;;;13.80;61.10;;;-142.21;100.00;112049.66;5074272;28;20920;-80
2022/04/22 06:05:23;;;;;;;18.67;13.23;;;13.80;61.40;;;-142.21;100.00;112049.66;5073584;28;20451;-76
2022/04/22 06:10:31;;;;;;;17.87;12.60;;;13.80;61.30;;;-142.21;100.00;112049.66;5074416;28;20424;-77
2022/04/22 06:10:41;;;;;;;18.07;12.33;;;13.90;61.40;;;-142.21;100.00;112049.66;5073892;28;20454;-75
2022/04/22 06:13:09;;;;;;;16.13;12.40;;;13.80;60.90;;;-142.21;100.00;112049.66;5074165;28;20440;-76
2022/04/22 06:15:36;;;;;;;15.77;12.70;;;13.90;61.10;;;-142.21;100.00;112049.66;5073535;28;20454;-76
2022/04/22 06:18:04;;;;;;;17.70;13.27;;;14.00;60.90;;;-142.21;100.00;112049.66;5072571;28;20823;-76
2022/04/22 06:20:33;;;;;;;15.97;11.80;;;14.10;60.70;;;-142.21;100.00;112049.66;5072897;28;20447;-77
2022/04/22 06:23:01;;;;;;;18.13;12.70;;;14.20;60.40;;;-142.21;100.00;112049.66;5073955;28;20486;-76
2022/04/22 06:25:29;;;;;;;18.63;13.80;;;14.30;59.80;;;-142.21;100.00;112049.66;5073757;28;20455;-77
2022/04/22 06:27:57;;;;;;;17.70;12.07;;;14.40;59.40;;;-142.21;100.00;112049.66;5073094;28;20471;-76
2022/04/22 06:30:25;;;;;;;18.13;13.40;;;14.40;59.60;;;-142.21;100.00;112049.66;5054705;28;20857;-75
2022/04/22 06:32:55;;;;;;;15.50;12.37;;;14.50;59.70;;;-142.21;100.00;112049.66;5073275;28;20560;-77
2022/04/22 06:35:23;;;;;;;16.90;12.67;;;14.50;59.40;;;-142.21;100.00;112049.66;5073384;28;20443;-77
2022/04/22 06:37:53;;;;;;;18.50;13.47;;;14.60;60.00;;;-142.21;100.00;112049.66;5072040;28;20528;-77
2022/04/22 06:45:55;;;;;;;16.43;12.70;;;15.40;59.10;;;-142.21;100.00;112049.66;5069497;28;20431;-77
2022/04/22 06:48:29;;;;;;;16.47;12.67;;;15.80;57.40;;;-142.21;98.45;112049.66;5072766;28;20497;-77
2022/04/22 06:50:58;;;;;;;16.53;12.90;;;16.20;56.50;;;-142.21;98.03;112049.66;5072939;28;20432;-75
2022/04/22 06:53:30;;;;;;;18.37;13.13;;;16.20;56.00;;;-142.21;100.00;112049.66;5057341;28;20456;-75
2022/04/22 06:56:01;;;;;;;17.33;12.80;;;16.60;57.00;;;-142.21;94.82;112049.66;5058289;28;20446;-76
2022/04/22 06:58:37;;;;;;;16.33;12.93;;;16.80;54.90;;;-142.21;97.79;112049.66;5064716;28;20447;-75
2022/04/22 07:01:05;;;;;;;17.50;13.33;;;17.00;54.30;;;-142.21;91.35;112049.66;5072549;28;20439;-77
2022/04/22 07:03:33;;;;;;;25.83;14.10;;;16.80;52.30;;;-142.21;93.41;112049.66;5072735;28;20447;-76
2022/04/22 07:06:00;;;;;;;16.27;13.33;;;16.80;54.10;;;-142.21;90.44;112049.66;5073305;28;20539;-75
2022/04/22 07:08:30;;;;;;;14.97;12.00;;;18.40;52.00;;;-142.21;94.24;112049.66;5072635;28;20825;-77
2022/04/22 07:11:04;;;;;;;16.63;13.33;;;18.70;50.80;;;-142.21;90.08;112049.66;5073089;28;20470;-76
2022/04/22 07:13:32;;;;;;;17.00;13.17;;;17.90;50.30;;;-142.21;88.62;112049.66;5071355;28;20427;-75
2022/04/22 07:16:03;;;;;;;16.93;13.13;;;17.00;51.50;;;-142.21;91.68;112049.66;5072728;28;20443;-76
2022/04/22 07:18:31;;;;;;;16.03;12.77;;;16.70;53.10;;;-142.21;90.77;112049.66;5071776;28;20493;-75
2022/04/22 07:20:58;;;;;;;15.87;12.63;;;16.50;54.30;;;-142.21;92.96;112049.66;5072983;28;20539;-76
2022/04/22 07:23:27;;;;;;;17.67;13.50;;;16.30;54.50;;;-142.21;90.69;112049.66;5072503;28;20858;-76
2022/04/22 07:25:58;;;;;;;15.57;12.80;;;16.10;54.30;;;-142.21;91.58;112049.66;5072255;28;20824;-75
2022/04/22 07:28:28;;;;;;;15.47;12.63;;;16.10;55.10;;;-142.21;88.26;112049.66;5071874;28;20518;-78
2022/04/22 07:31:00;;;;;;;16.33;12.60;;;16.00;54.30;;;-142.21;91.11;112049.66;5072957;28;20460;-78
2022/04/22 07:33:28;;;;;;;16.93;12.60;;;16.00;55.00;;;-142.21;91.93;112049.66;5072639;28;20436;-76
2022/04/22 07:35:55;;;;;;;15.67;11.80;;;16.20;55.60;;;-142.21;91.30;112049.66;5072739;28;20542;-77
2022/04/22 07:38:24;;;;;;;17.27;12.67;;;16.30;54.90;;;-142.21;86.78;112049.66;5072757;28;20455;-77
2022/04/22 07:40:53;;;;;;;16.23;12.43;;;16.40;53.50;;;-142.21;89.38;112049.66;5071957;28;20954;-77
2022/04/22 07:48:57;;;;;;;15.67;11.80;;;16.60;54.40;;;-142.21;86.52;112049.66;5068458;28;20792;-77
2022/04/22 07:51:26;;;;;;;19.03;12.90;;;16.70;53.50;;;-142.21;84.91;112049.66;5071672;28;20966;-76
2022/04/22 07:53:55;;;;;;;12.77;11.40;;;16.70;53.40;;;-142.21;82.64;112049.66;5069438;28;20926;-75
2022/04/22 07:56:22;;;;;;;15.03;11.43;;;16.70;53.00;;;-142.21;82.66;112049.66;5072302;28;20450;-76
2022/04/22 07:58:51;;;;;;;13.77;11.60;;;16.60;52.80;;;-142.21;84.06;112049.66;5072126;28;20530;-76
2022/04/22 08:01:18;;;;;;;13.97;11.13;;;16.70;53.30;;;-142.21;86.17;112049.66;5053231;28;20820;-76
2022/04/22 08:03:46;;;;;;;16.33;12.10;;;16.80;53.50;;;-142.21;83.76;112049.66;5052382;28;20455;-77
2022/04/22 08:06:13;;;;;;;16.37;12.40;;;16.80;52.70;;;-142.21;86.14;112049.66;5053000;28;20441;-77
2022/04/22 08:08:41;;;;;;;13.87;11.60;;;16.90;53.40;;;-142.21;80.67;112049.66;5071952;28;20475;-77
2022/04/22 08:11:09;;;;;;;15.40;12.03;;;17.00;52.30;;;-142.21;85.48;112049.66;5071951;28;20502;-76
2022/04/22 08:13:36;;;;;;;15.80;11.87;;;17.00;53.40;;;-142.21;81.18;112049.66;5072301;28;20483;-76
2022/04/22 08:16:05;;;;;;;15.87;11.27;;;17.10;52.30;;;-142.21;81.15;112049.66;5071134;28;20451;-76
2022/04/22 08:18:32;;;;;;;13.73;11.50;;;17.20;52.70;;;-142.21;79.15;112049.66;5072211;28;20542;-77
2022/04/22 08:21:00;;;;;;;13.90;11.27;;;17.20;52.00;;;-142.21;80.58;112049.66;5072164;28;20447;-77
2022/04/22 08:23:27;;;;;;;15.10;11.67;;;17.40;52.30;;;-142.21;79.81;112049.66;5071910;28;20923;-77
2022/04/22 08:25:54;;;;;;;14.30;11.43;;;17.40;52.20;;;-142.21;75.95;112049.66;5072416;28;20482;-77
2022/04/22 08:28:21;;;;;;;14.47;11.17;;;17.30;51.10;;;-142.21;74.61;112049.66;5071200;28;20972;-76
2022/04/22 08:30:49;;;;;;;14.60;11.20;;;17.30;51.10;;;-142.21;80.92;112049.66;5071603;28;20447;-77
2022/04/22 08:33:36;;;;;;;12.03;10.70;;;17.40;52.60;;;-142.21;77.91;112049.66;5056814;28;20559;-76
2022/04/22 08:36:04;;;;;;;15.20;11.40;;;17.60;52.50;;;-142.21;73.70;112049.66;5051883;28;20680;-75
2022/04/22 08:38:31;;;;;;;13.27;10.97;;;17.60;51.60;;;-142.21;77.64;112049.66;5050941;28;20444;-76
2022/04/22 08:40:59;;;;;;;13.50;11.17;;;17.80;52.70;;;-142.21;75.10;112049.66;5051776;28;20932;-76
2022/04/22 08:43:28;;;;;;;13.27;11.57;;;17.90;52.30;;;-142.21;71.51;112049.66;5056221;28;20482;-76
2022/04/22 08:45:55;;;;;;;12.60;11.03;;;18.10;51.50;;;-142.21;72.65;112049.66;5071753;28;20435;-76
2022/04/22 08:51:11;;;;;;;13.53;11.23;;;18.50;50.20;;;-142.21;67.43;112049.66;5071814;28;20419;-75
2022/04/22 08:53:44;;;;;;;12.27;10.47;;;18.90;49.70;;;-142.21;62.18;112049.66;5071378;28;20473;-76
2022/04/22 08:56:13;;;;;;;13.13;10.43;;;19.20;49.00;;;-142.21;62.28;112049.66;5071794;28;20468;-77
2022/04/22 08:58:40;;;;;;;12.67;10.30;;;19.40;48.40;;;-142.21;60.90;112049.66;5061059;28;20557;-76
2022/04/22 09:01:08;;;;;;;12.70;10.90;;;20.10;47.80;;;-142.21;58.33;112049.66;5054573;28;20440;-75
2022/04/22 09:03:36;;;;;;;12.50;10.37;;;21.90;46.30;;;-142.21;52.94;112049.66;5034721;28;20952;-76
2022/04/22 09:06:04;;;;;;;12.47;10.57;;;22.10;45.40;;;-142.21;45.83;112049.66;5070238;28;20451;-75
2022/04/22 09:08:34;;;;;;;12.47;10.60;;;22.30;44.20;;;-142.21;44.04;112049.66;5056062;28;20209;-75
2022/04/22 09:11:05;;;;;;;12.13;9.77;;;24.20;43.60;;;-142.21;39.51;112049.66;5061056;28;20699;-76
2022/04/22 09:13:32;;;;;;;12.20;10.00;;;26.20;39.60;;;-142.21;40.27;112049.66;5054870;28;20262;-77
2022/04/22 09:16:00;;;;;;;10.83;9.67;;;28.20;37.30;;;-142.21;41.58;112049.66;5054608;28;20324;-76
2022/04/22 09:18:29;;;;;;;10.50;9.43;;;29.80;34.90;;;-142.21;43.02;112049.66;5055374;28;20206;-77
2022/04/22 09:21:02;;;;;;;10.00;9.00;;;30.70;32.40;;;-142.21;44.65;112049.66;5068994;28;20700;-78
2022/04/22 09:23:36;;;;;;;10.10;9.10;;;30.60;32.80;;;-142.21;46.37;112049.66;5067201;28;20626;-78
2022/04/22 09:26:06;;;;;;;10.67;9.57;;;29.40;33.70;;;-142.21;48.03;112049.66;5054434;28;20193;-76
2022/04/22 09:28:34;;;;;;;12.50;10.47;;;27.80;35.30;;;-142.21;46.72;112049.66;5054889;28;20237;-77
2022/04/22 09:31:04;;;;;;;11.70;10.47;;;26.40;36.90;;;-142.21;46.64;112049.66;5069680;28;20197;-78
2022/04/22 09:33:47;;;;;;;9.97;8.97;;;25.50;37.70;;;-142.21;46.80;112049.66;5067554;28;20260;-77
2022/04/22 09:42:40;;;;;;;10.87;9.67;;;23.20;40.20;;;-142.21;47.27;112049.66;5032719;28;20241;-75
2022/04/22 09:45:09;;;;;;;10.67;9.33;;;22.60;41.90;;;-142.21;48.01;112049.66;5063291;28;20204;-77
2022/04/22 09:47:40;;;;;;;11.53;10.20;;;22.40;42.30;;;-142.21;48.05;112049.66;5074291;28;20233;-75
2022/04/22 09:50:18;;;;;;;10.97;9.73;;;22.30;43.20;;;-142.21;47.34;112049.66;5073288;28;20284;-74
2022/04/22 09:52:46;;;;;;;10.30;9.17;;;22.30;42.90;;;-142.21;49.82;112049.66;5074319;28;20256;-77
2022/04/22 09:55:16;;;;;;;11.07;9.87;;;22.20;43.60;;;-142.21;46.94;112049.66;5074388;28;20593;-76
2022/04/22 09:57:54;;;;;;;10.37;9.33;;;22.20;43.00;;;-142.21;47.19;112049.66;5073477;28;20212;-76
2022/04/22 10:00:23;;;;;;;10.00;8.73;;;22.10;43.20;;;-142.21;45.38;112049.66;5074114;28;20246;-77
2022/04/22 10:02:52;;;;;;;10.80;9.67;;;22.10;42.60;;;-142.21;46.68;112049.66;5073793;28;20672;-74
2022/04/22 10:05:22;;;;;;;12.30;9.40;;;22.10;43.90;;;-142.21;48.56;112049.66;5073832;28;20554;-77
2022/04/22 10:07:53;;;;;;;9.57;8.67;;;22.20;44.60;;;-142.21;47.63;112049.66;5074197;28;20289;-76
2022/04/22 10:10:28;;;;;;;9.67;8.67;;;22.30;44.10;;;-142.21;46.34;112049.66;5069271;28;20201;-75
2022/04/22 10:12:58;;;;;;;9.67;8.67;;;22.40;43.80;;;-142.21;44.67;112049.66;5057117;28;20245;-77
2022/04/22 10:15:29;;;;;;;10.50;9.03;;;22.30;43.10;;;-142.21;44.04;112049.66;5053398;28;20202;-78
2022/04/22 10:17:59;;;;;;;11.33;10.13;;;22.30;42.30;;;-142.21;43.94;112049.66;5054129;28;20201;-76
2022/04/22 10:20:29;;;;;;;9.83;8.47;;;22.30;42.70;;;-142.21;44.63;112049.66;5062352;28;20205;-75
2022/04/22 10:22:58;;;;;;;9.60;8.60;;;22.10;43.20;;;-142.21;43.92;112049.66;5072168;28;20194;-78
2022/04/22 10:25:31;;;;;;;9.40;8.50;;;22.20;42.70;;;-142.21;44.15;112049.66;5071515;28;20665;-77
2022/04/22 10:28:01;;;;;;;10.00;8.37;;;22.30;43.00;;;-142.21;45.06;112049.66;5074094;28;20205;-76
2022/04/22 10:30:30;;;;;;;9.60;8.60;;;22.40;44.20;;;-142.21;45.44;112049.66;5072558;28;20274;-77
2022/04/22 10:32:58;;;;;;;10.53;8.40;;;22.50;43.90;;;-142.21;43.05;112049.66;5073193;28;20318;-75
2022/04/22 10:35:26;;;;;;;9.70;8.03;;;22.60;42.80;;;-142.21;43.44;112049.66;5071062;28;20254;-77
2022/04/22 10:37:54;;;;;;;8.93;8.00;;;22.60;42.90;;;-142.21;44.49;112049.66;5072738;28;20240;-77
2022/04/22 10:40:26;;;;;;;8.67;7.80;;;22.80;44.20;;;-142.21;42.40;112049.66;5071237;28;20193;-76
2022/04/22 10:42:55;;;;;;;10.23;8.97;;;22.90;42.70;;;-142.21;41.83;112049.66;5072652;28;20886;-76
2022/04/22 10:48:21;;;;;;;10.17;8.37;;;22.80;42.50;;;-142.21;42.81;112049.66;5073327;28;20228;-76
2022/04/22 10:50:59;;;;;;;8.67;7.73;;;22.80;42.30;;;-142.21;42.51;112049.66;5073017;28;20367;-74
2022/04/22 10:53:29;;;;;;;9.67;8.47;;;22.90;42.60;;;-142.21;42.91;112049.66;5062461;28;20205;-75